Black Hawk, South Dakota
Current Conditions -  °F | °C
As of 1:58 PM on Thursday 27 Nov 2014 (Local Time) from KRCA Reporting Station
Clear Clear  
Wind Chill: 30°   Ceiling: Unl
Heat Index: 35°   Visibility: 9mi
Dew Point: 28°   Wind: 6mph
Humidity: 76%   Direction: 170°S
Pressure: 29.9"   Gusts: NA
Location:  44.17°N, 103.33°W
Report Text: KRCA 272058Z AUTO 17005KT 9SM CLR 02/M02 A2990 RMK AO2 SLP163 T00151023 57032 $
Loading
Personal Weather Stations






























Interactive Weather Map New forecast layout! Learn more

10-Day Weather Forecast

Advertisements
Track Severe Weather on mobile